Time;durP1;ratioP1;P1;durP2;ratioP2;P2;SDS_P1;SDS_P2;PMS_P1;PMS_P2;Temp;Humidity;BMP_temperature;BMP_pressure;BME280_temperature;BME280_humidity;BME280_pressure;Samples;Min_cycle;Max_cycle;Signal;HPM_P1;HPM_P2
2021/10/31 00:01:46;;;;;;;32.38;7.63;;;;;;;;;;5041400;28;19917;-89
2021/10/31 00:04:12;;;;;;;28.20;5.75;;;;;;;;;;5015254;28;20091;-87
2021/10/31 00:06:38;;;;;;;;;;;;;;;;;;5035799;28;20056;-87
2021/10/31 00:09:07;;;;;;;35.83;6.15;;;;;;;;;;5034630;28;19932;-87
2021/10/31 00:11:34;;;;;;;34.47;5.93;;;;;;;;;;5019572;28;20060;-87
2021/10/31 00:14:01;;;;;;;31.98;5.90;;;;;;;;;;5013795;28;20028;-87
2021/10/31 00:16:27;;;;;;;29.27;5.38;;;;;;;;;;5016827;28;20112;-88
2021/10/31 00:18:53;;;;;;;;;;;;;;;;;;5012748;28;20368;-88
2021/10/31 00:21:22;;;;;;;32.53;6.50;;;;;;;;;;5015324;28;19923;-86
2021/10/31 00:23:49;;;;;;;31.30;6.40;;;;;;;;;;5010235;28;20127;-87
2021/10/31 00:26:15;;;;;;;36.13;6.05;;;;;;;;;;5031984;28;20033;-87
2021/10/31 00:28:41;;;;;;;38.47;6.68;;;;;;;;;;5029541;28;20025;-88
2021/10/31 00:31:07;;;;;;;32.22;6.43;;;;;;;;;;5014035;28;20033;-87
2021/10/31 00:33:33;;;;;;;;;;;;;;;;;;5010910;28;20128;-89
2021/10/31 00:36:00;;;;;;;29.35;6.20;;;;;;;;;;5006495;28;20016;-87
2021/10/31 00:38:26;;;;;;;35.50;6.43;;;;;;;;;;5012152;28;21307;-87
2021/10/31 00:40:52;;;;;;;;;;;;;;;;;;5010095;28;20025;-87
2021/10/31 00:43:18;;;;;;;30.10;6.05;;;;;;;;;;5015732;28;19913;-87
2021/10/31 00:45:44;;;;;;;;;;;;;;;;;;5014231;28;20061;-86
2021/10/31 00:48:11;;;;;;;30.35;5.88;;;;;;;;;;5014740;28;20004;-88
2021/10/31 00:50:37;;;;;;;33.05;6.28;;;;;;;;;;5015945;28;20072;-87
2021/10/31 00:53:04;;;;;;;32.83;5.88;;;;;;;;;;5022349;28;20036;-86
2021/10/31 00:55:30;;;;;;;41.92;6.53;;;;;;;;;;5010624;28;20054;-87
2021/10/31 00:57:57;;;;;;;29.30;5.97;;;;;;;;;;5003889;28;20128;-87
2021/10/31 01:00:24;;;;;;;30.65;5.80;;;;;;;;;;5004579;28;20121;-87
2021/10/31 01:02:50;;;;;;;32.20;6.13;;;;;;;;;;5005445;28;20808;-87
2021/10/31 01:05:19;;;;;;;33.97;5.50;;;;;;;;;;5012457;28;20062;-87
2021/10/31 01:07:48;;;;;;;29.52;5.13;;;;;;;;;;5013350;28;20058;-86
2021/10/31 01:10:37;;;;;;;31.90;5.78;;;;;;;;;;5008130;28;20410;-87
2021/10/31 01:13:23;;;;;;;33.88;5.75;;;;;;;;;;4931128;28;20138;-86
2021/10/31 01:16:10;;;;;;;25.27;5.15;;;;;;;;;;4933553;28;20040;-86
2021/10/31 01:18:51;;;;;;;27.13;5.30;;;;;;;;;;4907445;28;20582;-87
2021/10/31 01:21:22;;;;;;;30.92;5.63;;;;;;;;;;4949005;28;20283;-88
2021/10/31 01:23:58;;;;;;;31.20;5.25;;;;;;;;;;4952391;28;20050;-89
2021/10/31 01:26:24;;;;;;;29.90;5.88;;;;;;;;;;4950558;28;20037;-88
2021/10/31 01:28:50;;;;;;;;;;;;;;;;;;4947427;28;20074;-86
2021/10/31 01:31:24;;;;;;;29.98;5.45;;;;;;;;;;4930466;28;20012;-86
2021/10/31 01:33:56;;;;;;;31.30;5.60;;;;;;;;;;4926473;28;20031;-88
2021/10/31 01:36:28;;;;;;;25.25;5.20;;;;;;;;;;4952059;28;20090;-87
2021/10/31 01:38:57;;;;;;;26.45;5.72;;;;;;;;;;4931775;28;20605;-87
2021/10/31 01:41:38;;;;;;;33.20;5.45;;;;;;;;;;4926904;28;20030;-87
2021/10/31 01:44:13;;;;;;;29.63;5.25;;;;;;;;;;4947798;28;20054;-89
2021/10/31 01:46:57;;;;;;;29.63;5.40;;;;;;;;;;4933975;28;20355;-87
2021/10/31 01:49:28;;;;;;;29.17;5.32;;;;;;;;;;4944763;28;20034;-87
2021/10/31 01:51:56;;;;;;;30.17;5.35;;;;;;;;;;5009839;28;20407;-87
2021/10/31 01:54:34;;;;;;;26.83;5.25;;;;;;;;;;5009617;28;20022;-88
2021/10/31 01:57:02;;;;;;;24.67;4.60;;;;;;;;;;5006441;28;20040;-87
2021/10/31 01:59:35;;;;;;;21.40;3.60;;;;;;;;;;5012481;28;20041;-87
2021/10/31 02:02:03;;;;;;;26.67;4.82;;;;;;;;;;5007797;28;20144;-86
2021/10/31 02:04:31;;;;;;;25.85;4.60;;;;;;;;;;5032394;28;20129;-87
2021/10/31 02:06:59;;;;;;;19.55;3.67;;;;;;;;;;5029836;28;20037;-87
2021/10/31 02:09:28;;;;;;;20.80;4.15;;;;;;;;;;5018802;28;20049;-86
2021/10/31 02:11:56;;;;;;;18.90;3.08;;;;;;;;;;5024841;28;20044;-87
2021/10/31 02:14:23;;;;;;;18.23;2.92;;;;;;;;;;5013602;28;20042;-86
2021/10/31 02:16:49;;;;;;;16.65;2.80;;;;;;;;;;5005763;28;20119;-87
2021/10/31 02:19:30;;;;;;;11.30;2.40;;;;;;;;;;5008916;28;20309;-87
2021/10/31 02:22:01;;;;;;;10.80;2.13;;;;;;;;;;5003744;28;20041;-87
2021/10/31 02:24:27;;;;;;;15.25;2.20;;;;;;;;;;5011555;28;20064;-87
2021/10/31 02:26:53;;;;;;;8.98;1.42;;;;;;;;;;5019261;28;20036;-88
2021/10/31 02:29:19;;;;;;;;;;;;;;;;;;5030052;28;20030;-87
2021/10/31 02:31:46;;;;;;;8.52;1.65;;;;;;;;;;5023398;28;19979;-86
2021/10/31 02:34:12;;;;;;;9.45;1.50;;;;;;;;;;5014993;28;20154;-87
2021/10/31 02:36:39;;;;;;;9.60;1.50;;;;;;;;;;5007010;28;20048;-87
2021/10/31 02:39:06;;;;;;;8.30;1.20;;;;;;;;;;5007218;28;20041;-86
2021/10/31 02:41:33;;;;;;;8.73;1.48;;;;;;;;;;5009586;28;20036;-86
2021/10/31 02:43:59;;;;;;;7.63;1.30;;;;;;;;;;5007722;28;20026;-86
2021/10/31 02:46:27;;;;;;;5.60;1.10;;;;;;;;;;5003624;28;20664;-87
2021/10/31 02:48:54;;;;;;;8.68;1.52;;;;;;;;;;5020319;28;20048;-86
2021/10/31 02:51:42;;;;;;;6.80;1.10;;;;;;;;;;5013110;28;20052;-87
2021/10/31 02:54:17;;;;;;;6.65;1.00;;;;;;;;;;5008250;28;20037;-88
2021/10/31 02:56:46;;;;;;;9.27;1.35;;;;;;;;;;5008160;28;20072;-87
2021/10/31 02:59:20;;;;;;;6.63;1.40;;;;;;;;;;5010850;28;20038;-86
2021/10/31 03:01:48;;;;;;;9.13;1.30;;;;;;;;;;5010816;28;20026;-86
2021/10/31 03:04:16;;;;;;;9.25;1.35;;;;;;;;;;5025989;28;20038;-86
2021/10/31 03:06:44;;;;;;;11.18;1.30;;;;;;;;;;5023735;28;20056;-87
2021/10/31 03:09:11;;;;;;;8.93;1.17;;;;;;;;;;5029830;28;20037;-87
2021/10/31 03:11:37;;;;;;;8.88;0.88;;;;;;;;;;5028661;28;20083;-86
2021/10/31 03:14:03;;;;;;;;;;;;;;;;;;5024140;28;20064;-88
2021/10/31 03:16:29;;;;;;;6.70;1.02;;;;;;;;;;5031434;28;19944;-85
2021/10/31 03:18:55;;;;;;;;;;;;;;;;;;5027931;28;20419;-87
2021/10/31 03:21:21;;;;;;;7.80;1.00;;;;;;;;;;5029824;28;19918;-87
2021/10/31 03:23:47;;;;;;;;;;;;;;;;;;5026298;28;20468;-87
2021/10/31 03:26:13;;;;;;;5.25;0.90;;;;;;;;;;5029283;28;19920;-87
2021/10/31 03:28:39;;;;;;;;;;;;;;;;;;5032874;28;20029;-88
2021/10/31 03:31:05;;;;;;;8.05;1.20;;;;;;;;;;5025511;28;19995;-88
2021/10/31 03:33:31;;;;;;;;;;;;;;;;;;5029446;28;20603;-87
2021/10/31 03:35:58;;;;;;;8.43;1.38;;;;;;;;;;5029408;28;20008;-88
2021/10/31 03:38:25;;;;;;;;;;;;;;;;;;5029867;28;20083;-87
2021/10/31 03:40:52;;;;;;;;;;;;;;;;;;5028822;28;21351;-87
2021/10/31 03:43:20;;;;;;;6.85;1.10;;;;;;;;;;5028062;28;20540;-88
2021/10/31 03:45:48;;;;;;;10.70;2.03;;;;;;;;;;5033790;28;20048;-88
2021/10/31 03:48:14;;;;;;;9.55;1.50;;;;;;;;;;5032699;28;20905;-88
2021/10/31 03:50:40;;;;;;;;;;;;;;;;;;5028125;28;20029;-88
2021/10/31 03:53:06;;;;;;;7.40;1.10;;;;;;;;;;5034346;28;20351;-88
2021/10/31 03:55:32;;;;;;;;;;;;;;;;;;5029216;28;20067;-87
2021/10/31 03:57:58;;;;;;;11.32;1.35;;;;;;;;;;5029547;28;20690;-88
2021/10/31 04:00:24;;;;;;;;;;;;;;;;;;5030706;28;20033;-88
2021/10/31 04:02:51;;;;;;;9.13;1.17;;;;;;;;;;5030189;28;19924;-88
2021/10/31 04:05:17;;;;;;;9.32;1.17;;;;;;;;;;5030358;28;20533;-88
2021/10/31 04:07:43;;;;;;;;;;;;;;;;;;5027792;28;20037;-89
2021/10/31 04:10:10;;;;;;;6.35;1.00;;;;;;;;;;5034442;28;19966;-87
2021/10/31 04:12:36;;;;;;;10.50;1.20;;;;;;;;;;5032329;28;20500;-87
2021/10/31 04:15:04;;;;;;;7.70;0.95;;;;;;;;;;5027470;28;20055;-88
2021/10/31 04:17:30;;;;;;;5.35;0.90;;;;;;;;;;5031470;28;20499;-88
2021/10/31 04:19:56;;;;;;;;;;;;;;;;;;5032355;28;20044;-88
2021/10/31 04:22:22;;;;;;;5.82;0.95;;;;;;;;;;5044894;28;19917;-88
2021/10/31 04:24:48;;;;;;;;;;;;;;;;;;5043581;28;20037;-89
2021/10/31 04:27:15;;;;;;;10.02;1.55;;;;;;;;;;5029651;28;19979;-88
2021/10/31 04:29:41;;;;;;;6.95;1.42;;;;;;;;;;5031826;28;20043;-87
2021/10/31 04:32:08;;;;;;;9.60;1.42;;;;;;;;;;5030549;28;20021;-87
2021/10/31 04:34:34;;;;;;;6.22;1.00;;;;;;;;;;5030787;28;20029;-87
2021/10/31 04:37:01;;;;;;;;;;;;;;;;;;5025258;28;20132;-86
2021/10/31 04:39:27;;;;;;;;;;;;;;;;;;5029121;28;20066;-87
2021/10/31 04:42:01;;;;;;;5.78;0.90;;;;;;;;;;5027684;28;19917;-86
2021/10/31 04:44:27;;;;;;;6.75;1.17;;;;;;;;;;5031154;28;20037;-88
2021/10/31 04:46:54;;;;;;;9.18;1.10;;;;;;;;;;5024012;28;20040;-88
2021/10/31 04:49:19;;;;;;;;;;;;;;;;;;5027119;28;20527;-89
2021/10/31 04:51:46;;;;;;;6.93;0.98;;;;;;;;;;5024909;28;19927;-85
2021/10/31 04:54:12;;;;;;;;;;;;;;;;;;5038293;28;20506;-88
2021/10/31 04:56:38;;;;;;;10.70;1.48;;;;;;;;;;5033750;28;19990;-89
2021/10/31 04:59:04;;;;;;;;;;;;;;;;;;5027235;28;20194;-89
2021/10/31 05:01:30;;;;;;;6.05;0.98;;;;;;;;;;5028513;28;20006;-90
2021/10/31 05:03:56;;;;;;;;;;;;;;;;;;5024706;28;20025;-89
2021/10/31 05:06:22;;;;;;;10.88;1.17;;;;;;;;;;5034507;28;19916;-89
2021/10/31 05:08:48;;;;;;;;;;;;;;;;;;5027261;28;20037;-89
2021/10/31 05:11:15;;;;;;;6.47;1.00;;;;;;;;;;5030997;28;19943;-88
2021/10/31 05:13:41;;;;;;;9.18;0.90;;;;;;;;;;5028089;28;20755;-89
2021/10/31 05:16:09;;;;;;;5.80;0.90;;;;;;;;;;5027341;28;20041;-89
2021/10/31 05:18:35;;;;;;;6.68;1.00;;;;;;;;;;5026552;28;20039;-89
2021/10/31 05:21:02;;;;;;;7.22;1.05;;;;;;;;;;5044080;28;20106;-89
2021/10/31 05:23:28;;;;;;;5.50;0.98;;;;;;;;;;5026661;28;20043;-89
2021/10/31 05:25:54;;;;;;;4.28;0.82;;;;;;;;;;5030437;28;20021;-89
2021/10/31 05:28:21;;;;;;;;;;;;;;;;;;5026816;28;20029;-89
2021/10/31 05:30:47;;;;;;;6.60;0.82;;;;;;;;;;5025049;28;19936;-90
2021/10/31 05:33:14;;;;;;;12.70;1.40;;;;;;;;;;5029794;28;20071;-88
2021/10/31 05:35:40;;;;;;;6.93;0.80;;;;;;;;;;5025882;28;20044;-86
2021/10/31 05:38:06;;;;;;;7.13;0.80;;;;;;;;;;5032764;28;20025;-88
2021/10/31 05:40:33;;;;;;;5.93;0.90;;;;;;;;;;5027674;28;20476;-89
2021/10/31 05:42:59;;;;;;;9.35;0.90;;;;;;;;;;5036915;28;20033;-89
2021/10/31 05:45:25;;;;;;;;;;;;;;;;;;5046921;28;20064;-90
2021/10/31 05:47:52;;;;;;;7.35;0.80;;;;;;;;;;5028772;28;19923;-92
2021/10/31 05:50:18;;;;;;;5.03;0.65;;;;;;;;;;5036331;28;20141;-91
2021/10/31 05:52:45;;;;;;;6.47;0.80;;;;;;;;;;5040462;28;20024;-90
2021/10/31 05:55:12;;;;;;;6.57;1.10;;;;;;;;;;5032793;28;20041;-92
2021/10/31 05:57:39;;;;;;;6.22;0.77;;;;;;;;;;5033793;28;20037;-92
2021/10/31 06:00:07;;;;;;;7.35;0.80;;;;;;;;;;5025911;28;20665;-90
2021/10/31 06:02:33;;;;;;;9.00;0.85;;;;;;;;;;5027639;28;20431;-90
2021/10/31 06:04:59;;;;;;;8.32;1.00;;;;;;;;;;5026206;28;20028;-91
2021/10/31 06:07:26;;;;;;;7.88;0.98;;;;;;;;;;5029054;28;20033;-91
2021/10/31 06:09:55;;;;;;;8.43;0.90;;;;;;;;;;5031523;28;20037;-91
2021/10/31 06:12:21;;;;;;;7.88;1.13;;;;;;;;;;5031801;28;20374;-91
2021/10/31 06:14:47;;;;;;;9.68;1.20;;;;;;;;;;5029211;28;20068;-91
2021/10/31 06:17:13;;;;;;;;;;;;;;;;;;5029881;28;20041;-90
2021/10/31 06:19:40;;;;;;;5.85;0.82;;;;;;;;;;5035185;28;19928;-89
2021/10/31 06:22:06;;;;;;;8.82;1.17;;;;;;;;;;5029848;28;20044;-90
2021/10/31 06:24:32;;;;;;;;;;;;;;;;;;5029962;28;20033;-89
2021/10/31 06:26:58;;;;;;;7.25;0.98;;;;;;;;;;5033164;28;20479;-90
2021/10/31 06:29:24;;;;;;;8.88;0.95;;;;;;;;;;5044833;28;20045;-90
2021/10/31 06:31:50;;;;;;;;;;;;;;;;;;5039749;28;20037;-90
2021/10/31 06:34:17;;;;;;;6.63;0.90;;;;;;;;;;5048815;28;19900;-90
2021/10/31 06:36:43;;;;;;;6.78;0.90;;;;;;;;;;5041987;28;20041;-90
2021/10/31 06:39:10;;;;;;;6.47;0.90;;;;;;;;;;5033685;28;20239;-89
2021/10/31 06:41:36;;;;;;;6.65;1.10;;;;;;;;;;5036409;28;20036;-89
2021/10/31 06:44:02;;;;;;;;;;;;;;;;;;5035804;28;20037;-90
2021/10/31 06:46:28;;;;;;;9.85;1.27;;;;;;;;;;5048750;28;19913;-90
2021/10/31 06:48:54;;;;;;;;;;;;;;;;;;5043935;28;20056;-91
2021/10/31 06:51:21;;;;;;;7.80;1.00;;;;;;;;;;5035826;28;19917;-90
2021/10/31 06:53:48;;;;;;;7.30;1.17;;;;;;;;;;5036107;28;20500;-90
2021/10/31 06:56:15;;;;;;;7.85;1.00;;;;;;;;;;5041704;28;20056;-90
2021/10/31 06:58:41;;;;;;;7.55;1.00;;;;;;;;;;5035997;28;20086;-89
2021/10/31 07:01:08;;;;;;;11.02;1.40;;;;;;;;;;5041299;28;20139;-91
2021/10/31 07:03:34;;;;;;;10.15;1.10;;;;;;;;;;5033134;28;20025;-91
2021/10/31 07:06:02;;;;;;;;;;;;;;;;;;5033937;28;20037;-91
2021/10/31 07:08:28;;;;;;;10.07;1.27;;;;;;;;;;5032098;28;20035;-91
2021/10/31 07:10:55;;;;;;;9.38;1.23;;;;;;;;;;5033822;28;20029;-90
2021/10/31 07:13:21;;;;;;;10.75;1.50;;;;;;;;;;5035036;28;20051;-91
2021/10/31 07:15:47;;;;;;;;;;;;;;;;;;5032086;28;20118;-91
2021/10/31 07:18:13;;;;;;;;;;;;;;;;;;5043706;28;19947;-90
2021/10/31 07:20:39;;;;;;;;;;;;;;;;;;5047467;28;20248;-91
2021/10/31 07:23:05;;;;;;;;;;;;;;;;;;5035795;28;20012;-91
2021/10/31 07:25:31;;;;;;;;;;;;;;;;;;5038909;28;19912;-90
2021/10/31 07:27:57;;;;;;;;;;;;;;;;;;5035289;28;20368;-89
2021/10/31 07:30:23;;;;;;;;;;;;;;;;;;5036838;28;19970;-89
2021/10/31 07:32:49;;;;;;;;;;;;;;;;;;5032156;28;19923;-89
2021/10/31 07:35:15;;;;;;;;;;;;;;;;;;5033336;28;20584;-85
2021/10/31 07:37:41;;;;;;;;;;;;;;;;;;5033527;28;19958;-89
2021/10/31 07:40:08;;;;;;;;;;;;;;;;;;5032142;28;19917;-89
2021/10/31 07:42:36;;;;;;;;;;;;;;;;;;5034331;28;19947;-88
2021/10/31 07:45:02;;;;;;;;;;;;;;;;;;5028265;28;19928;-88
2021/10/31 07:47:28;;;;;;;;;;;;;;;;;;5035521;28;19917;-89
2021/10/31 07:49:54;;;;;;;;;;;;;;;;;;5031963;28;19984;-87
2021/10/31 07:52:20;;;;;;;;;;;;;;;;;;5029596;28;19913;-85
2021/10/31 07:54:47;;;;;;;;;;;;;;;;;;5026090;28;19947;-86
2021/10/31 07:57:13;;;;;;;;;;;;;;;;;;5024404;28;20195;-86
2021/10/31 07:59:39;;;;;;;;;;;;;;;;;;5026187;28;19923;-87
2021/10/31 08:02:06;;;;;;;;;;;;;;;;;;5027399;28;19912;-87
2021/10/31 08:04:32;;;;;;;;;;;;;;;;;;5027997;28;19913;-85
2021/10/31 08:06:58;;;;;;;;;;;;;;;;;;5026728;28;19921;-85
2021/10/31 08:09:24;;;;;;;;;;;;;;;;;;5027570;28;20378;-87
2021/10/31 08:11:50;;;;;;;;;;;;;;;;;;5028075;28;19919;-86
2021/10/31 08:14:16;;;;;;;;;;;;;;;;;;5031836;28;19923;-87
2021/10/31 08:16:42;;;;;;;;;;;;;;;;;;5026773;28;20373;-86
2021/10/31 08:19:08;;;;;;;;;;;;;;;;;;5023657;28;19924;-85
2021/10/31 08:21:34;;;;;;;;;;;;;;;;;;5023221;28;19962;-86
2021/10/31 08:24:00;;;;;;;;;;;;;;;;;;5022620;28;19921;-85
2021/10/31 08:26:26;;;;;;;;;;;;;;;;;;5022773;28;19944;-86
2021/10/31 08:28:52;;;;;;;;;;;;;;;;;;5023881;28;19978;-86
2021/10/31 08:31:24;;;;;;;;;;;;;;;;;;5024918;28;19931;-86
2021/10/31 08:33:55;;;;;;;;;;;;;;;;;;5020708;28;19927;-87
2021/10/31 08:36:21;;;;;;;;;;;;;;;;;;5025500;28;19924;-87
2021/10/31 08:38:47;;;;;;;;;;;;;;;;;;5026787;28;19920;-86
2021/10/31 08:41:13;;;;;;;;;;;;;;;;;;5024350;28;19916;-87
2021/10/31 08:43:39;;;;;;;;;;;;;;;;;;5026238;28;19912;-86
2021/10/31 08:46:05;;;;;;;;;;;;;;;;;;5025645;28;19969;-87
2021/10/31 08:48:34;;;;;;;;;;;;;;;;;;5026573;28;19917;-85
2021/10/31 08:51:00;;;;;;;;;;;;;;;;;;5022474;28;20924;-84
2021/10/31 08:53:27;;;;;;;;;;;;;;;;;;5025799;28;19952;-83
2021/10/31 08:55:53;;;;;;;;;;;;;;;;;;5018656;28;19928;-84
2021/10/31 08:58:19;;;;;;;;;;;;;;;;;;5024788;28;19921;-84
2021/10/31 09:00:45;;;;;;;;;;;;;;;;;;5021941;28;19917;-83
2021/10/31 09:03:11;;;;;;;;;;;;;;;;;;5026523;28;19916;-83
2021/10/31 09:05:37;;;;;;;;;;;;;;;;;;5030288;28;19927;-85
2021/10/31 09:08:03;;;;;;;;;;;;;;;;;;5025627;28;20391;-85
2021/10/31 09:10:30;;;;;;;;;;;;;;;;;;5025575;28;19923;-83
2021/10/31 09:12:56;;;;;;;;;;;;;;;;;;5022322;28;20029;-86
2021/10/31 09:15:22;;;;;;;;;;;;;;;;;;5034866;28;20021;-87
2021/10/31 09:17:48;;;;;;;;;;;;;;;;;;5017323;28;19986;-84
2021/10/31 09:20:14;;;;;;;;;;;;;;;;;;5024062;28;20023;-87
2021/10/31 09:22:40;;;;;;;;;;;;;;;;;;5033855;28;19918;-85
2021/10/31 09:25:06;;;;;;;;;;;;;;;;;;5022749;28;19917;-85
2021/10/31 09:27:32;;;;;;;;;;;;;;;;;;5023148;28;19916;-89
2021/10/31 09:29:58;;;;;;;;;;;;;;;;;;5028403;28;20352;-87
2021/10/31 09:32:24;;;;;;;;;;;;;;;;;;5023810;28;19921;-89
2021/10/31 09:34:56;;;;;;;;;;;;;;;;;;5027273;28;19916;-87
2021/10/31 09:37:22;;;;;;;;;;;;;;;;;;5027187;28;19921;-87
2021/10/31 09:39:48;;;;;;;;;;;;;;;;;;5022277;28;19932;-85
2021/10/31 09:42:15;;;;;;;;;;;;;;;;;;5029082;28;19984;-87
2021/10/31 09:44:50;;;;;;;;;;;;;;;;;;5026580;28;19919;-85
2021/10/31 09:47:16;;;;;;;;;;;;;;;;;;5029687;28;19920;-87
2021/10/31 09:49:42;;;;;;;;;;;;;;;;;;5027129;28;19928;-87
2021/10/31 09:52:08;;;;;;;;;;;;;;;;;;5029812;28;19939;-87
2021/10/31 09:54:34;;;;;;;;;;;;;;;;;;5030046;28;19913;-87
2021/10/31 09:57:00;;;;;;;;;;;;;;;;;;5025905;28;20640;-87
2021/10/31 09:59:27;;;;;;;;;;;;;;;;;;5033234;28;19967;-87
2021/10/31 10:04:23;;;;;;;;;;;;;;;;;;5027751;28;19920;-87
2021/10/31 10:06:49;;;;;;;;;;;;;;;;;;5045456;28;19923;-91
2021/10/31 10:09:15;;;;;;;;;;;;;;;;;;5029734;28;20003;-87
2021/10/31 10:11:41;;;;;;;;;;;;;;;;;;5028843;28;20487;-87
2021/10/31 10:14:07;;;;;;;;;;;;;;;;;;5027089;28;19928;-90
2021/10/31 10:16:33;;;;;;;;;;;;;;;;;;5028591;28;19984;-89
2021/10/31 10:18:59;;;;;;;;;;;;;;;;;;5025832;28;20419;-87
2021/10/31 10:21:25;;;;;;;;;;;;;;;;;;5029037;28;19924;-90
2021/10/31 10:23:54;;;;;;;;;;;;;;;;;;5026939;28;19921;-89
2021/10/31 10:26:20;;;;;;;;;;;;;;;;;;5036473;28;19913;-89
2021/10/31 10:28:49;;;;;;;;;;;;;;;;;;5029674;28;19919;-85
2021/10/31 10:31:15;;;;;;;;;;;;;;;;;;5031958;28;20296;-87
2021/10/31 10:33:43;;;;;;;;;;;;;;;;;;5031468;28;19917;-86
2021/10/31 10:36:09;;;;;;;;;;;;;;;;;;5031012;28;20342;-91
2021/10/31 10:38:35;;;;;;;;;;;;;;;;;;5028758;28;19924;-87
2021/10/31 10:41:01;;;;;;;;;;;;;;;;;;5033538;28;19923;-88
2021/10/31 10:43:27;;;;;;;;;;;;;;;;;;5029530;28;20399;-88
2021/10/31 10:45:53;;;;;;;;;;;;;;;;;;5027693;28;19923;-87
2021/10/31 10:48:19;;;;;;;;;;;;;;;;;;5029174;28;20755;-88
2021/10/31 10:50:45;;;;;;;;;;;;;;;;;;5023928;28;19920;-90
2021/10/31 10:53:11;;;;;;;;;;;;;;;;;;5025222;28;19924;-89
2021/10/31 10:55:37;;;;;;;;;;;;;;;;;;5023769;28;19960;-88
2021/10/31 10:58:03;;;;;;;;;;;;;;;;;;5027710;28;19925;-87
2021/10/31 11:00:32;;;;;;;;;;;;;;;;;;5022783;28;19925;-87
2021/10/31 11:02:58;;;;;;;;;;;;;;;;;;5020127;28;19985;-86
2021/10/31 11:05:23;;;;;;;;;;;;;;;;;;5026566;28;19912;-86
2021/10/31 11:07:49;;;;;;;;;;;;;;;;;;5013906;28;20372;-86
2021/10/31 11:10:16;;;;;;;;;;;;;;;;;;5028985;28;19912;-88
2021/10/31 11:12:42;;;;;;;;;;;;;;;;;;5024761;28;19917;-86
2021/10/31 11:15:08;;;;;;;;;;;;;;;;;;5023564;28;19970;-88
2021/10/31 11:17:34;;;;;;;;;;;;;;;;;;5032128;28;19917;-91
2021/10/31 11:20:00;;;;;;;;;;;;;;;;;;5027738;28;19975;-90
2021/10/31 11:22:26;;;;;;;;;;;;;;;;;;5030980;28;19971;-90
2021/10/31 11:24:52;;;;;;;;;;;;;;;;;;5031716;28;19916;-92
2021/10/31 11:27:18;;;;;;;;;;;;;;;;;;5030434;28;19924;-91
2021/10/31 11:29:44;;;;;;;;;;;;;;;;;;5022233;28;19944;-90
2021/10/31 11:32:10;;;;;;;;;;;;;;;;;;5024335;28;20109;-85
2021/10/31 11:34:36;;;;;;;;;;;;;;;;;;5025429;28;19966;-85
2021/10/31 11:37:02;;;;;;;;;;;;;;;;;;5023258;28;19931;-86
2021/10/31 11:39:28;;;;;;;;;;;;;;;;;;5025343;28;19944;-86
2021/10/31 11:41:54;;;;;;;;;;;;;;;;;;5023177;28;19998;-85
2021/10/31 11:44:20;;;;;;;;;;;;;;;;;;5024752;28;20786;-82
2021/10/31 11:46:46;;;;;;;;;;;;;;;;;;5027228;28;19946;-87
2021/10/31 11:49:13;;;;;;;;;;;;;;;;;;5031245;28;19988;-90
2021/10/31 11:51:39;;;;;;;;;;;;;;;;;;5029344;28;19934;-89
2021/10/31 11:54:05;;;;;;;;;;;;;;;;;;5025957;28;19913;-90
2021/10/31 11:56:36;;;;;;;;;;;;;;;;;;5032504;28;19936;-88
2021/10/31 11:59:02;;;;;;;;;;;;;;;;;;5030503;28;19923;-91
2021/10/31 12:01:29;;;;;;;;;;;;;;;;;;5039768;28;19917;-89
2021/10/31 12:03:55;;;;;;;;;;;;;;;;;;5034647;28;19947;-90
2021/10/31 12:06:21;;;;;;;;;;;;;;;;;;5041749;28;19905;-90
2021/10/31 12:08:47;;;;;;;;;;;;;;;;;;5048297;28;19944;-90
2021/10/31 12:11:13;;;;;;;;;;;;;;;;;;5046844;28;19947;-90
2021/10/31 12:13:39;;;;;;;;;;;;;;;;;;5042401;28;19916;-88
2021/10/31 12:16:05;;;;;;;;;;;;;;;;;;5032716;28;20011;-89
2021/10/31 12:18:31;;;;;;;;;;;;;;;;;;5039469;28;20558;-89
2021/10/31 12:20:57;;;;;;;;;;;;;;;;;;5039976;28;19917;-89
2021/10/31 12:23:23;;;;;;;;;;;;;;;;;;5045287;28;20482;-90
2021/10/31 12:25:49;;;;;;;;;;;;;;;;;;5048397;28;19916;-88
2021/10/31 12:28:15;;;;;;;;;;;;;;;;;;5033144;28;19939;-89
2021/10/31 12:30:41;;;;;;;;;;;;;;;;;;5039473;28;19921;-90
2021/10/31 12:33:07;;;;;;;;;;;;;;;;;;5038044;28;20035;-87
2021/10/31 12:35:33;;;;;;;;;;;;;;;;;;5042357;28;19924;-90
2021/10/31 12:37:59;;;;;;;;;;;;;;;;;;5039051;28;19952;-88
2021/10/31 12:40:25;;;;;;;;;;;;;;;;;;5034458;28;19947;-89
2021/10/31 12:42:53;;;;;;;;;;;;;;;;;;5033377;28;20164;-90
2021/10/31 12:45:19;;;;;;;;;;;;;;;;;;5038329;28;19974;-87
2021/10/31 12:47:53;;;;;;;;;;;;;;;;;;5028902;28;20004;-89
2021/10/31 12:50:19;;;;;;;;;;;;;;;;;;5038266;28;20283;-88
2021/10/31 12:52:45;;;;;;;;;;;;;;;;;;5029036;28;20313;-89
2021/10/31 12:55:11;;;;;;;;;;;;;;;;;;5034359;28;19925;-87
2021/10/31 12:57:37;;;;;;;;;;;;;;;;;;5040595;28;19927;-89
2021/10/31 13:00:04;;;;;;;;;;;;;;;;;;5035311;28;19917;-87
2021/10/31 13:02:30;;;;;;;;;;;;;;;;;;5040203;28;19959;-89
2021/10/31 13:04:56;;;;;;;;;;;;;;;;;;5034832;28;19944;-90
2021/10/31 13:07:25;;;;;;;;;;;;;;;;;;5043705;28;19905;-91
2021/10/31 13:09:52;;;;;;;;;;;;;;;;;;5051511;28;20201;-89
2021/10/31 13:12:18;;;;;;;;;;;;;;;;;;5048868;28;20042;-91
2021/10/31 13:14:44;;;;;;;;;;;;;;;;;;5030716;28;19916;-89
2021/10/31 13:17:10;;;;;;;;;;;;;;;;;;5038454;28;19974;-90
2021/10/31 13:19:36;;;;;;;;;;;;;;;;;;5040894;28;19995;-91
2021/10/31 13:22:02;;;;;;;;;;;;;;;;;;5030312;28;20011;-90
2021/10/31 13:24:28;;;;;;;;;;;;;;;;;;5035917;28;20019;-90
2021/10/31 13:26:54;;;;;;;;;;;;;;;;;;5038067;28;19916;-90
2021/10/31 13:29:20;;;;;;;;;;;;;;;;;;5028566;28;20272;-89
2021/10/31 13:31:47;;;;;;;;;;;;;;;;;;5027142;28;19921;-86
2021/10/31 13:34:13;;;;;;;;;;;;;;;;;;5028948;28;19962;-87
2021/10/31 13:36:39;;;;;;;;;;;;;;;;;;5028715;28;19924;-86
2021/10/31 13:39:04;;;;;;;;;;;;;;;;;;5028418;28;19951;-88
2021/10/31 13:41:31;;;;;;;;;;;;;;;;;;5030127;28;19916;-88
2021/10/31 13:43:58;;;;;;;;;;;;;;;;;;5025974;28;19935;-88
2021/10/31 13:46:24;;;;;;;;;;;;;;;;;;5030188;28;19971;-88
2021/10/31 13:48:52;;;;;;;;;;;;;;;;;;5036672;28;19983;-89
2021/10/31 13:51:19;;;;;;;;;;;;;;;;;;5028066;28;19917;-88
2021/10/31 13:53:45;;;;;;;;;;;;;;;;;;5021920;28;19923;-88
2021/10/31 13:56:11;;;;;;;;;;;;;;;;;;5027604;28;19929;-87
2021/10/31 13:58:37;;;;;;;;;;;;;;;;;;5023478;28;20257;-86
2021/10/31 14:01:03;;;;;;;;;;;;;;;;;;5026928;28;19929;-86
2021/10/31 14:03:29;;;;;;;;;;;;;;;;;;5031704;28;19923;-85
2021/10/31 14:05:55;;;;;;;;;;;;;;;;;;5026695;28;19917;-86
2021/10/31 14:08:22;;;;;;;;;;;;;;;;;;5026868;28;19921;-86
2021/10/31 14:10:48;;;;;;;;;;;;;;;;;;5029611;28;19913;-87
2021/10/31 14:13:17;;;;;;;;;;;;;;;;;;5026373;28;20043;-86
2021/10/31 14:15:43;;;;;;;;;;;;;;;;;;5033839;28;19940;-87
2021/10/31 14:18:09;;;;;;;;;;;;;;;;;;5038320;28;19921;-87
2021/10/31 14:20:35;;;;;;;;;;;;;;;;;;5038128;28;19916;-87
2021/10/31 14:23:01;;;;;;;;;;;;;;;;;;5037081;28;20551;-87
2021/10/31 14:25:28;;;;;;;;;;;;;;;;;;5032811;28;19935;-87
2021/10/31 14:27:54;;;;;;;;;;;;;;;;;;5024350;28;20035;-87
2021/10/31 14:30:20;;;;;;;;;;;;;;;;;;5028206;28;20011;-88
2021/10/31 14:32:46;;;;;;;;;;;;;;;;;;5032033;28;19921;-86
2021/10/31 14:35:13;;;;;;;;;;;;;;;;;;5031003;28;19943;-87
2021/10/31 14:37:39;;;;;;;;;;;;;;;;;;5039143;28;19939;-86
2021/10/31 14:40:05;;;;;;;;;;;;;;;;;;5033582;28;19970;-87
2021/10/31 14:42:31;;;;;;;;;;;;;;;;;;5032034;28;20063;-86
2021/10/31 14:44:59;;;;;;;;;;;;;;;;;;5035536;28;19917;-87
2021/10/31 14:47:28;;;;;;;;;;;;;;;;;;5036274;28;19916;-87
2021/10/31 14:49:54;;;;;;;;;;;;;;;;;;5023657;28;20049;-87
2021/10/31 14:52:20;;;;;;;;;;;;;;;;;;5028543;28;20003;-87
2021/10/31 14:54:49;;;;;;;;;;;;;;;;;;5043290;28;19920;-87
2021/10/31 14:57:29;;;;;;;;;;;;;;;;;;5027992;28;20027;-85
2021/10/31 14:59:58;;;;;;;;;;;;;;;;;;5023155;28;20020;-85
2021/10/31 15:02:24;;;;;;;;;;;;;;;;;;5027207;28;20384;-87
2021/10/31 15:04:50;;;;;;;;;;;;;;;;;;5022124;28;20360;-86
2021/10/31 15:07:16;;;;;;;;;;;;;;;;;;5029282;28;19948;-86
2021/10/31 15:09:42;;;;;;;;;;;;;;;;;;5026079;28;19963;-85
2021/10/31 15:12:08;;;;;;;;;;;;;;;;;;5033812;28;19916;-87
2021/10/31 15:14:34;;;;;;;;;;;;;;;;;;5029640;28;19932;-86
2021/10/31 15:17:00;;;;;;;;;;;;;;;;;;5025478;28;20070;-87
2021/10/31 15:19:26;;;;;;;;;;;;;;;;;;5033663;28;20453;-88
2021/10/31 15:21:52;;;;;;;;;;;;;;;;;;5025084;28;19963;-86
2021/10/31 15:24:18;;;;;;;;;;;;;;;;;;5031963;28;19959;-86
2021/10/31 15:26:46;;;;;;;;;;;;;;;;;;5029295;28;20016;-86
2021/10/31 15:29:12;;;;;;;;;;;;;;;;;;5030429;28;19921;-88
2021/10/31 15:31:38;;;;;;;;;;;;;;;;;;5035039;28;19943;-87
2021/10/31 15:34:04;;;;;;;;;;;;;;;;;;5024662;28;19920;-84
2021/10/31 15:36:31;;;;;;;;;;;;;;;;;;5028381;28;19978;-85
2021/10/31 15:38:57;;;;;;;;;;;;;;;;;;5032543;28;19920;-86
2021/10/31 15:41:23;;;;;;;;;;;;;;;;;;5034413;28;20379;-85
2021/10/31 15:43:52;;;;;;;;;;;;;;;;;;5024735;28;19978;-86
2021/10/31 15:46:18;;;;;;;;;;;;;;;;;;5013968;28;19932;-87
2021/10/31 15:48:44;;;;;;;;;;;;;;;;;;5004803;28;19917;-87
2021/10/31 15:51:10;;;;;;;;;;;;;;;;;;5006392;28;19968;-85
2021/10/31 15:53:36;;;;;;;;;;;;;;;;;;5012494;28;19921;-86
2021/10/31 15:56:02;;;;;;;;;;;;;;;;;;5009881;28;20615;-86